Time,TemperatureF,DewpointF,PressureIn,WindDirection,WindDirectionDegrees,WindSpeedMPH,WindSpeedGustMPH,Humidity,HourlyPrecipIn,Conditions,Clouds,dailyrainin,SoftwareType,DateUTC
2013-09-05 00:01:00,58.7,50.1,29.92,North,350,0.0,0.0,73,0.00,,,0.00,WeatherCatV1.21B27,2013-09-05 07:01:00,
2013-09-05 00:06:00,58.6,50.3,29.92,North,350,0.0,0.0,74,0.00,,,0.00,WeatherCatV1.21B27,2013-09-05 07:06:00,
2013-09-05 00:11:00,58.5,50.2,29.92,North,350,0.0,0.0,74,0.00,,,0.00,WeatherCatV1.21B27,2013-09-05 07:11:00,
2013-09-05 00:16:00,58.2,50.3,29.92,North,350,0.0,2.0,75,0.00,,,0.00,WeatherCatV1.21B27,2013-09-05 07:16:00,
2013-09-05 00:21:00,57.9,50.0,29.92,North,350,0.0,0.0,75,0.00,,,0.00,WeatherCatV1.21B27,2013-09-05 07:21:00,
2013-09-05 00:26:00,57.7,50.2,29.92,North,350,0.0,0.0,76,0.00,,,0.00,WeatherCatV1.21B27,2013-09-05 07:26:00,
2013-09-05 00:31:00,57.5,51.0,29.92,North,350,0.0,0.0,79,0.00,,,0.00,WeatherCatV1.21B27,2013-09-05 07:31:00,
2013-09-05 00:36:00,57.3,50.5,29.92,North,350,0.0,0.0,78,0.00,,,0.00,WeatherCatV1.21B27,2013-09-05 07:36:00,
2013-09-05 00:41:00,57.2,50.4,29.92,North,350,0.0,0.0,78,0.00,,,0.00,WeatherCatV1.21B27,2013-09-05 07:41:00,
2013-09-05 00:46:00,57.0,50.2,29.92,North,350,0.0,0.0,78,0.00,,,0.00,WeatherCatV1.21B27,2013-09-05 07:46:00,
2013-09-05 00:51:00,56.8,51.0,29.92,North,350,0.0,0.0,81,0.00,,,0.00,WeatherCatV1.21B27,2013-09-05 07:51:00,
2013-09-05 00:56:00,56.7,50.9,29.92,North,350,0.0,0.0,81,0.00,,,0.00,WeatherCatV1.21B27,2013-09-05 07:56:00,
2013-09-05 01:01:00,56.7,50.9,29.92,North,350,0.0,0.0,81,0.00,,,0.00,WeatherCatV1.21B27,2013-09-05 08:01:00,
2013-09-05 01:06:00,56.5,51.1,29.92,North,350,0.0,0.0,82,0.00,,,0.00,WeatherCatV1.21B27,2013-09-05 08:06:00,
2013-09-05 01:11:00,56.5,51.4,29.92,North,350,0.0,0.0,83,0.00,,,0.00,WeatherCatV1.21B27,2013-09-05 08:11:00,
2013-09-05 01:16:00,56.4,51.3,29.92,North,350,0.0,0.0,83,0.00,,,0.00,WeatherCatV1.21B27,2013-09-05 08:16:00,
2013-09-05 01:21:00,56.3,51.2,29.92,North,350,0.0,0.0,83,0.00,,,0.00,WeatherCatV1.21B27,2013-09-05 08:21:00,
2013-09-05 01:26:00,56.2,51.1,29.92,North,350,0.0,0.0,83,0.00,,,0.00,WeatherCatV1.21B27,2013-09-05 08:26:00,
2013-09-05 01:31:00,56.0,50.9,29.92,North,350,0.0,0.0,83,0.00,,,0.00,WeatherCatV1.21B27,2013-09-05 08:31:00,
2013-09-05 01:36:00,55.9,51.1,29.92,North,350,0.0,0.0,84,0.00,,,0.00,WeatherCatV1.21B27,2013-09-05 08:36:00,
2013-09-05 01:41:00,55.8,51.0,29.92,North,350,0.0,0.0,84,0.00,,,0.00,WeatherCatV1.21B27,2013-09-05 08:41:00,
2013-09-05 01:46:00,55.6,51.2,29.91,North,350,0.0,0.0,85,0.00,,,0.00,WeatherCatV1.21B27,2013-09-05 08:46:00,
2013-09-05 01:51:00,55.4,51.0,29.91,North,350,0.0,0.0,85,0.00,,,0.00,WeatherCatV1.21B27,2013-09-05 08:51:00,
2013-09-05 01:56:00,55.2,50.8,29.91,North,350,0.0,0.0,85,0.00,,,0.00,WeatherCatV1.21B27,2013-09-05 08:56:00,
2013-09-05 02:01:00,55.0,50.6,29.91,North,350,0.0,0.0,85,0.00,,,0.00,WeatherCatV1.21B27,2013-09-05 09:01:00,
2013-09-05 02:06:00,54.9,50.5,29.91,North,350,0.0,0.0,85,0.00,,,0.00,WeatherCatV1.21B27,2013-09-05 09:06:00,
2013-09-05 02:11:00,54.8,50.7,29.91,North,350,0.0,0.0,86,0.00,,,0.00,WeatherCatV1.21B27,2013-09-05 09:11:00,
2013-09-05 02:16:00,54.6,50.5,29.91,North,350,0.0,0.0,86,0.00,,,0.00,WeatherCatV1.21B27,2013-09-05 09:16:00,
2013-09-05 02:21:00,54.5,50.7,29.91,North,350,0.0,0.0,87,0.00,,,0.00,WeatherCatV1.21B27,2013-09-05 09:21:00,
2013-09-05 02:26:00,54.4,50.6,29.91,North,350,0.0,0.0,87,0.00,,,0.00,WeatherCatV1.21B27,2013-09-05 09:26:00,
2013-09-05 02:31:00,54.3,50.5,29.91,North,350,0.0,0.0,87,0.00,,,0.00,WeatherCatV1.21B27,2013-09-05 09:31:00,
2013-09-05 02:36:00,54.2,50.4,29.91,North,350,0.0,0.0,87,0.00,,,0.00,WeatherCatV1.21B27,2013-09-05 09:36:00,
2013-09-05 02:41:00,54.2,50.4,29.91,North,350,0.0,0.0,87,0.00,,,0.00,WeatherCatV1.21B27,2013-09-05 09:41:00,
2013-09-05 02:46:00,54.1,50.0,29.90,North,350,0.0,0.0,86,0.00,,,0.00,WeatherCatV1.21B27,2013-09-05 09:46:00,
2013-09-05 02:51:00,54.1,50.0,29.90,North,350,0.0,0.0,86,0.00,,,0.00,WeatherCatV1.21B27,2013-09-05 09:51:00,
2013-09-05 02:56:00,54.1,49.7,29.90,North,350,0.0,0.0,85,0.00,,,0.00,WeatherCatV1.21B27,2013-09-05 09:56:00,
2013-09-05 03:01:00,54.0,49.9,29.90,North,350,0.0,0.0,86,0.00,,,0.00,WeatherCatV1.21B27,2013-09-05 10:01:00,
2013-09-05 03:06:00,54.0,49.6,29.90,North,350,0.0,0.0,85,0.00,,,0.00,WeatherCatV1.21B27,2013-09-05 10:06:00,
2013-09-05 03:11:00,54.0,49.9,29.90,North,350,1.0,2.0,86,0.00,,,0.00,WeatherCatV1.21B27,2013-09-05 10:11:00,
2013-09-05 03:16:00,54.0,49.6,29.90,NNW,338,1.0,3.0,85,0.00,,,0.00,WeatherCatV1.21B27,2013-09-05 10:16:00,
2013-09-05 03:21:00,54.2,49.8,29.90,NW,325,2.0,3.0,85,0.00,,,0.00,WeatherCatV1.21B27,2013-09-05 10:21:00,
2013-09-05 03:26:00,54.3,49.9,29.90,NW,322,2.0,3.0,85,0.00,,,0.00,WeatherCatV1.21B27,2013-09-05 10:26:00,
2013-09-05 03:31:00,54.5,50.1,29.90,NNW,334,1.0,5.0,85,0.00,,,0.00,WeatherCatV1.21B27,2013-09-05 10:31:00,
2013-09-05 03:36:00,54.6,49.9,29.90,North,350,3.0,5.0,84,0.00,,,0.00,WeatherCatV1.21B27,2013-09-05 10:36:00,
2013-09-05 03:41:00,54.5,49.8,29.90,NNW,332,6.0,7.0,84,0.00,,,0.00,WeatherCatV1.21B27,2013-09-05 10:41:00,
2013-09-05 03:46:00,54.4,49.7,29.90,NNW,335,5.0,6.0,84,0.00,,,0.00,WeatherCatV1.21B27,2013-09-05 10:46:00,
2013-09-05 03:51:00,54.3,49.9,29.90,NNW,333,4.0,7.0,85,0.00,,,0.00,WeatherCatV1.21B27,2013-09-05 10:51:00,
2013-09-05 03:56:00,54.4,49.7,29.90,NNW,336,5.0,6.0,84,0.00,,,0.00,WeatherCatV1.21B27,2013-09-05 10:56:00,
2013-09-05 04:01:00,55.2,49.5,29.89,NNW,341,5.0,7.0,81,0.00,,,0.00,WeatherCatV1.21B27,2013-09-05 11:01:00,
2013-09-05 04:06:00,55.8,49.4,29.89,NNW,341,7.0,9.0,79,0.00,,,0.00,WeatherCatV1.21B27,2013-09-05 11:06:00,
2013-09-05 04:11:00,56.2,49.4,29.89,NW,312,4.0,4.0,78,0.00,,,0.00,WeatherCatV1.21B27,2013-09-05 11:11:00,
2013-09-05 04:16:00,56.6,48.8,29.89,NNW,339,4.0,6.0,75,0.00,,,0.00,WeatherCatV1.21B27,2013-09-05 11:16:00,
2013-09-05 04:21:00,57.2,49.0,29.89,NNW,333,3.0,7.0,74,0.00,,,0.00,WeatherCatV1.21B27,2013-09-05 11:21:00,
2013-09-05 04:26:00,57.6,49.0,29.89,NNW,333,3.0,4.0,73,0.00,,,0.00,WeatherCatV1.21B27,2013-09-05 11:26:00,
2013-09-05 04:31:00,57.9,49.3,29.89,NNW,341,0.0,2.0,73,0.00,,,0.00,WeatherCatV1.21B27,2013-09-05 11:31:00,
2013-09-05 04:36:00,58.0,49.0,29.89,NNW,341,0.0,0.0,72,0.00,,,0.00,WeatherCatV1.21B27,2013-09-05 11:36:00,
2013-09-05 04:41:00,57.9,48.9,29.89,NNW,341,0.0,0.0,72,0.00,,,0.00,WeatherCatV1.21B27,2013-09-05 11:41:00,
2013-09-05 04:46:00,57.6,49.0,29.90,NNW,341,0.0,0.0,73,0.00,,,0.00,WeatherCatV1.21B27,2013-09-05 11:46:00,
2013-09-05 04:51:00,57.3,48.7,29.90,NNW,341,0.0,0.0,73,0.00,,,0.00,WeatherCatV1.21B27,2013-09-05 11:51:00,
2013-09-05 04:56:00,57.0,48.8,29.90,NNW,341,0.0,0.0,74,0.00,,,0.00,WeatherCatV1.21B27,2013-09-05 11:56:00,
2013-09-05 05:01:00,56.8,49.0,29.90,NNW,341,0.0,0.0,75,0.00,,,0.00,WeatherCatV1.21B27,2013-09-05 12:01:00,
2013-09-05 05:06:00,56.4,49.3,29.90,NNW,341,0.0,0.0,77,0.00,,,0.00,WeatherCatV1.21B27,2013-09-05 12:06:00,
2013-09-05 05:11:00,56.1,49.0,29.90,NNW,341,0.0,0.0,77,0.00,,,0.00,WeatherCatV1.21B27,2013-09-05 12:11:00,
2013-09-05 05:16:00,55.8,49.0,29.91,NNW,341,0.0,0.0,78,0.00,,,0.00,WeatherCatV1.21B27,2013-09-05 12:16:00,
2013-09-05 05:21:00,55.3,48.9,29.91,NNW,341,0.0,0.0,79,0.00,,,0.00,WeatherCatV1.21B27,2013-09-05 12:21:00,
2013-09-05 05:26:00,54.9,48.8,29.91,NNW,341,0.0,1.0,80,0.00,,,0.00,WeatherCatV1.21B27,2013-09-05 12:26:00,
2013-09-05 05:31:00,54.5,49.4,29.91,NNW,341,0.0,0.0,83,0.00,,,0.00,WeatherCatV1.21B27,2013-09-05 12:31:00,
2013-09-05 05:36:00,54.1,49.0,29.91,NNW,341,0.0,1.0,83,0.00,,,0.00,WeatherCatV1.21B27,2013-09-05 12:36:00,
2013-09-05 05:41:00,53.8,49.1,29.91,NNW,341,0.0,0.0,84,0.00,,,0.00,WeatherCatV1.21B27,2013-09-05 12:41:00,
2013-09-05 05:46:00,53.6,48.9,29.91,NNW,341,0.0,0.0,84,0.00,,,0.00,WeatherCatV1.21B27,2013-09-05 12:46:00,
2013-09-05 05:51:00,53.5,49.1,29.91,NNW,341,0.0,0.0,85,0.00,,,0.00,WeatherCatV1.21B27,2013-09-05 12:51:00,
2013-09-05 05:56:00,53.4,49.3,29.91,NNW,341,0.0,0.0,86,0.00,,,0.00,WeatherCatV1.21B27,2013-09-05 12:56:00,
2013-09-05 06:01:00,53.3,49.5,29.91,NNW,341,0.0,0.0,87,0.00,,,0.00,WeatherCatV1.21B27,2013-09-05 13:01:00,
2013-09-05 06:06:00,53.2,49.4,29.91,NNW,341,0.0,0.0,87,0.00,,,0.00,WeatherCatV1.21B27,2013-09-05 13:06:00,
2013-09-05 06:11:00,53.3,49.8,29.91,NNW,341,0.0,0.0,88,0.00,,,0.00,WeatherCatV1.21B27,2013-09-05 13:11:00,
2013-09-05 06:16:00,53.4,49.9,29.91,NNW,341,1.0,1.0,88,0.00,,,0.00,WeatherCatV1.21B27,2013-09-05 13:16:00,
2013-09-05 06:21:00,53.7,50.2,29.91,North,356,0.0,0.0,88,0.00,,,0.00,WeatherCatV1.21B27,2013-09-05 13:21:00,
2013-09-05 06:26:00,54.1,50.6,29.91,North,356,0.0,0.0,88,0.00,,,0.00,WeatherCatV1.21B27,2013-09-05 13:26:00,
2013-09-05 06:31:00,54.4,50.6,29.91,North,356,0.0,0.0,87,0.00,,,0.00,WeatherCatV1.21B27,2013-09-05 13:31:00,
2013-09-05 06:36:00,54.5,50.4,29.91,North,356,0.0,0.0,86,0.00,,,0.00,WeatherCatV1.21B27,2013-09-05 13:36:00,
2013-09-05 06:41:00,54.6,50.5,29.91,North,356,0.0,0.0,86,0.00,,,0.00,WeatherCatV1.21B27,2013-09-05 13:41:00,
2013-09-05 06:46:00,54.6,50.5,29.91,North,356,0.0,0.0,86,0.00,,,0.00,WeatherCatV1.21B27,2013-09-05 13:46:00,
2013-09-05 06:51:00,54.6,50.8,29.91,North,356,0.0,0.0,87,0.00,,,0.00,WeatherCatV1.21B27,2013-09-05 13:51:00,
2013-09-05 06:56:00,54.5,50.4,29.91,North,356,0.0,0.0,86,0.00,,,0.00,WeatherCatV1.21B27,2013-09-05 13:56:00,
2013-09-05 07:01:00,54.3,50.5,29.92,North,356,0.0,0.0,87,0.00,,,0.00,WeatherCatV1.21B27,2013-09-05 14:01:00,
2013-09-05 07:06:00,54.2,50.4,29.92,North,356,0.0,0.0,87,0.00,,,0.00,WeatherCatV1.21B27,2013-09-05 14:06:00,
2013-09-05 07:11:00,54.1,50.3,29.92,North,356,0.0,0.0,87,0.00,,,0.00,WeatherCatV1.21B27,2013-09-05 14:11:00,
2013-09-05 07:16:00,54.0,50.2,29.92,North,356,0.0,0.0,87,0.00,,,0.00,WeatherCatV1.21B27,2013-09-05 14:16:00,
2013-09-05 07:21:00,53.9,49.8,29.92,North,356,0.0,0.0,86,0.00,,,0.00,WeatherCatV1.21B27,2013-09-05 14:21:00,
2013-09-05 07:26:00,53.8,49.7,29.92,North,356,0.0,0.0,86,0.00,,,0.00,WeatherCatV1.21B27,2013-09-05 14:26:00,
2013-09-05 07:31:00,53.8,49.7,29.93,North,356,0.0,0.0,86,0.00,,,0.00,WeatherCatV1.21B27,2013-09-05 14:31:00,
2013-09-05 07:36:00,53.8,50.0,29.93,North,356,0.0,0.0,87,0.00,,,0.00,WeatherCatV1.21B27,2013-09-05 14:36:00,
2013-09-05 07:41:00,53.9,50.1,29.93,North,356,0.0,0.0,87,0.00,,,0.00,WeatherCatV1.21B27,2013-09-05 14:41:00,
2013-09-05 07:46:00,54.1,50.6,29.93,North,356,0.0,0.0,88,0.00,,,0.00,WeatherCatV1.21B27,2013-09-05 14:46:00,
2013-09-05 07:51:00,54.4,50.9,29.93,North,356,0.0,0.0,88,0.00,,,0.00,WeatherCatV1.21B27,2013-09-05 14:51:00,
2013-09-05 07:56:00,54.5,50.7,29.93,North,356,0.0,0.0,87,0.00,,,0.00,WeatherCatV1.21B27,2013-09-05 14:56:00,
2013-09-05 08:01:00,54.7,50.9,29.93,North,356,0.0,0.0,87,0.00,,,0.00,WeatherCatV1.21B27,2013-09-05 15:01:00,
2013-09-05 08:06:00,55.0,51.5,29.93,North,356,0.0,1.0,88,0.00,,,0.00,WeatherCatV1.21B27,2013-09-05 15:06:00,
2013-09-05 08:11:00,55.3,51.5,29.93,North,356,0.0,0.0,87,0.00,,,0.00,WeatherCatV1.21B27,2013-09-05 15:11:00,
2013-09-05 08:16:00,55.7,51.3,29.93,North,356,0.0,1.0,85,0.00,,,0.00,WeatherCatV1.21B27,2013-09-05 15:16:00,
2013-09-05 08:21:00,56.5,52.0,29.93,North,356,0.0,0.0,85,0.00,,,0.00,WeatherCatV1.21B27,2013-09-05 15:21:00,
2013-09-05 08:26:00,57.0,52.2,29.93,East,81,0.0,1.0,84,0.00,,,0.00,WeatherCatV1.21B27,2013-09-05 15:26:00,
2013-09-05 08:31:00,57.5,52.4,29.93,NNW,338,0.0,0.0,83,0.00,,,0.00,WeatherCatV1.21B27,2013-09-05 15:31:00,
2013-09-05 08:36:00,58.0,52.5,29.93,NNW,339,1.0,1.0,82,0.00,,,0.00,WeatherCatV1.21B27,2013-09-05 15:36:00,
2013-09-05 08:41:00,58.3,52.8,29.93,North,357,1.0,2.0,82,0.00,,,0.00,WeatherCatV1.21B27,2013-09-05 15:41:00,
2013-09-05 08:46:00,58.7,50.8,29.94,NNW,329,0.0,4.0,75,0.00,,,0.00,WeatherCatV1.21B27,2013-09-05 15:46:00,
2013-09-05 08:51:00,59.5,50.8,29.94,NNW,331,0.0,7.0,73,0.00,,,0.00,WeatherCatV1.21B27,2013-09-05 15:51:00,
2013-09-05 08:56:00,60.1,51.0,29.94,North,354,1.0,3.0,72,0.00,,,0.00,WeatherCatV1.21B27,2013-09-05 15:56:00,
2013-09-05 09:01:00,60.7,50.1,29.95,North,4,1.0,2.0,68,0.00,,,0.00,WeatherCatV1.21B27,2013-09-05 16:01:00,
2013-09-05 09:06:00,61.3,49.8,29.95,NNW,348,1.0,2.0,66,0.00,,,0.00,WeatherCatV1.21B27,2013-09-05 16:06:00,
2013-09-05 09:11:00,61.8,49.5,29.95,NW,323,3.0,3.0,64,0.00,,,0.00,WeatherCatV1.21B27,2013-09-05 16:11:00,
2013-09-05 09:16:00,62.3,49.1,29.95,North,359,0.0,4.0,62,0.00,,,0.00,WeatherCatV1.21B27,2013-09-05 16:16:00,
2013-09-05 09:21:00,62.9,48.3,29.95,North,355,3.0,6.0,59,0.00,,,0.00,WeatherCatV1.21B27,2013-09-05 16:21:00,
2013-09-05 09:26:00,63.3,48.3,29.95,North,6,0.0,3.0,58,0.00,,,0.00,WeatherCatV1.21B27,2013-09-05 16:26:00,
2013-09-05 09:31:00,63.7,48.2,29.95,ESE,115,2.0,2.0,57,0.00,,,0.00,WeatherCatV1.21B27,2013-09-05 16:31:00,
2013-09-05 09:36:00,63.9,48.4,29.95,NNW,346,2.0,2.0,57,0.00,,,0.00,WeatherCatV1.21B27,2013-09-05 16:36:00,
2013-09-05 09:41:00,64.1,49.9,29.95,North,358,0.0,3.0,60,0.00,,,0.00,WeatherCatV1.21B27,2013-09-05 16:41:00,
2013-09-05 09:46:00,64.3,48.3,29.95,NNW,335,2.0,6.0,56,0.00,,,0.00,WeatherCatV1.21B27,2013-09-05 16:46:00,
2013-09-05 09:51:00,64.6,52.6,29.95,NNW,340,2.0,2.0,65,0.00,,,0.00,WeatherCatV1.21B27,2013-09-05 16:51:00,
2013-09-05 09:56:00,64.9,53.3,29.95,SE,135,2.0,2.0,66,0.00,,,0.00,WeatherCatV1.21B27,2013-09-05 16:56:00,
2013-09-05 10:01:00,65.2,54.4,29.95,SE,136,1.0,2.0,68,0.00,,,0.00,WeatherCatV1.21B27,2013-09-05 17:01:00,
2013-09-05 10:06:00,65.8,54.5,29.95,SSE,148,0.0,1.0,67,0.00,,,0.00,WeatherCatV1.21B27,2013-09-05 17:06:00,
2013-09-05 10:11:00,66.0,54.3,29.95,SE,143,0.0,2.0,66,0.00,,,0.00,WeatherCatV1.21B27,2013-09-05 17:11:00,
2013-09-05 10:16:00,66.1,54.4,29.95,SE,144,1.0,2.0,66,0.00,,,0.00,WeatherCatV1.21B27,2013-09-05 17:16:00,
2013-09-05 10:21:00,66.3,54.6,29.95,SSE,165,0.0,2.0,66,0.00,,,0.00,WeatherCatV1.21B27,2013-09-05 17:21:00,
2013-09-05 10:26:00,66.6,54.9,29.95,ESE,121,0.0,1.0,66,0.00,,,0.00,WeatherCatV1.21B27,2013-09-05 17:26:00,
2013-09-05 10:31:00,67.1,54.9,29.95,SE,142,1.0,3.0,65,0.00,,,0.00,WeatherCatV1.21B27,2013-09-05 17:31:00,
2013-09-05 10:36:00,67.8,54.3,29.95,SE,131,0.0,2.0,62,0.00,,,0.00,WeatherCatV1.21B27,2013-09-05 17:36:00,
2013-09-05 10:41:00,68.3,51.5,29.95,SE,127,0.0,1.0,55,0.00,,,0.00,WeatherCatV1.21B27,2013-09-05 17:41:00,
2013-09-05 10:46:00,68.4,49.5,29.95,SE,131,1.0,7.0,51,0.00,,,0.00,WeatherCatV1.21B27,2013-09-05 17:46:00,
2013-09-05 10:51:00,69.0,54.5,29.95,SSE,161,0.0,1.0,60,0.00,,,0.00,WeatherCatV1.21B27,2013-09-05 17:51:00,
2013-09-05 10:56:00,69.5,53.6,29.95,SSE,160,0.0,0.0,57,0.00,,,0.00,WeatherCatV1.21B27,2013-09-05 17:56:00,
2013-09-05 11:01:00,70.0,54.0,29.96,SSE,147,0.0,2.0,57,0.00,,,0.00,WeatherCatV1.21B27,2013-09-05 18:01:00,
2013-09-05 11:06:00,70.8,55.3,29.96,SSE,157,2.0,3.0,58,0.00,,,0.00,WeatherCatV1.21B27,2013-09-05 18:06:00,
2013-09-05 11:11:00,71.5,55.0,29.96,SSE,154,0.0,0.0,56,0.00,,,0.00,WeatherCatV1.21B27,2013-09-05 18:11:00,
2013-09-05 11:16:00,72.1,55.5,29.96,South,174,0.0,0.0,56,0.00,,,0.00,WeatherCatV1.21B27,2013-09-05 18:16:00,
2013-09-05 11:21:00,72.9,55.8,29.96,SSE,157,0.0,2.0,55,0.00,,,0.00,WeatherCatV1.21B27,2013-09-05 18:21:00,
2013-09-05 11:26:00,73.1,55.5,29.96,SE,132,1.0,2.0,54,0.00,,,0.00,WeatherCatV1.21B27,2013-09-05 18:26:00,
2013-09-05 11:31:00,73.3,55.6,29.96,North,8,2.0,3.0,54,0.00,,,0.00,WeatherCatV1.21B27,2013-09-05 18:31:00,
2013-09-05 11:36:00,73.0,55.4,29.96,North,4,0.0,2.0,54,0.00,,,0.00,WeatherCatV1.21B27,2013-09-05 18:36:00,
2013-09-05 11:41:00,73.3,55.6,29.96,SE,140,2.0,2.0,54,0.00,,,0.00,WeatherCatV1.21B27,2013-09-05 18:41:00,
2013-09-05 11:46:00,73.9,55.7,29.95,South,171,0.0,1.0,53,0.00,,,0.00,WeatherCatV1.21B27,2013-09-05 18:46:00,
2013-09-05 11:51:00,73.9,55.7,29.95,NNW,339,0.0,0.0,53,0.00,,,0.00,WeatherCatV1.21B27,2013-09-05 18:51:00,
2013-09-05 11:56:00,74.1,55.9,29.95,SE,139,2.0,3.0,53,0.00,,,0.00,WeatherCatV1.21B27,2013-09-05 18:56:00,
2013-09-05 12:01:00,75.0,56.7,29.95,SSE,152,0.0,1.0,53,0.00,,,0.00,WeatherCatV1.21B27,2013-09-05 19:01:00,
2013-09-05 12:06:00,75.3,54.8,29.95,East,80,0.0,1.0,49,0.00,,,0.00,WeatherCatV1.21B27,2013-09-05 19:06:00,
2013-09-05 12:11:00,75.5,56.6,29.95,SE,143,0.0,2.0,52,0.00,,,0.00,WeatherCatV1.21B27,2013-09-05 19:11:00,
2013-09-05 12:16:00,75.8,55.8,29.96,ENE,77,1.0,1.0,50,0.00,,,0.00,WeatherCatV1.21B27,2013-09-05 19:16:00,
2013-09-05 12:21:00,76.2,56.7,29.96,SSE,150,0.0,1.0,51,0.00,,,0.00,WeatherCatV1.21B27,2013-09-05 19:21:00,
2013-09-05 12:26:00,76.4,55.8,29.96,South,171,0.0,2.0,49,0.00,,,0.00,WeatherCatV1.21B27,2013-09-05 19:26:00,
2013-09-05 12:31:00,76.6,56.5,29.96,SSE,150,0.0,3.0,50,0.00,,,0.00,WeatherCatV1.21B27,2013-09-05 19:31:00,
2013-09-05 12:36:00,77.1,57.6,29.96,SE,129,0.0,1.0,51,0.00,,,0.00,WeatherCatV1.21B27,2013-09-05 19:36:00,
2013-09-05 12:41:00,77.4,53.8,29.96,NNW,335,3.0,3.0,44,0.00,,,0.00,WeatherCatV1.21B27,2013-09-05 19:41:00,
2013-09-05 12:46:00,76.7,53.1,29.95,NNW,340,0.0,3.0,44,0.00,,,0.00,WeatherCatV1.21B27,2013-09-05 19:46:00,
2013-09-05 12:52:00,76.4,52.8,29.95,NNW,348,0.0,1.0,44,0.00,,,0.00,WeatherCatV1.21B27,2013-09-05 19:52:00,
2013-09-05 12:57:00,76.8,56.2,29.95,ENE,59,0.0,1.0,49,0.00,,,0.00,WeatherCatV1.21B27,2013-09-05 19:57:00,
2013-09-05 13:02:00,76.7,56.6,29.95,NNW,347,0.0,1.0,50,0.00,,,0.00,WeatherCatV1.21B27,2013-09-05 20:02:00,
2013-09-05 13:07:00,76.8,53.2,29.95,East,88,0.0,2.0,44,0.00,,,0.00,WeatherCatV1.21B27,2013-09-05 20:07:00,
2013-09-05 13:12:00,76.3,52.8,29.95,North,358,0.0,1.0,44,0.00,,,0.00,WeatherCatV1.21B27,2013-09-05 20:12:00,
2013-09-05 13:17:00,76.3,52.1,29.95,ENE,78,0.0,1.0,43,0.00,,,0.00,WeatherCatV1.21B27,2013-09-05 20:17:00,
2013-09-05 13:22:00,76.9,52.0,29.95,East,79,0.0,1.0,42,0.00,,,0.00,WeatherCatV1.21B27,2013-09-05 20:22:00,
2013-09-05 13:27:00,76.4,50.9,29.95,NNW,340,0.0,2.0,41,0.00,,,0.00,WeatherCatV1.21B27,2013-09-05 20:27:00,
2013-09-05 13:32:00,76.3,55.2,29.95,North,6,1.0,2.0,48,0.00,,,0.00,WeatherCatV1.21B27,2013-09-05 20:32:00,
2013-09-05 13:36:00,76.1,52.0,29.95,SE,134,0.0,2.0,43,0.00,,,0.00,WeatherCatV1.21B27,2013-09-05 20:36:00,
2013-09-05 13:41:00,76.8,51.3,29.95,North,6,0.0,3.0,41,0.00,,,0.00,WeatherCatV1.21B27,2013-09-05 20:41:00,
2013-09-05 13:46:00,77.2,54.8,29.95,SE,125,0.0,1.0,46,0.00,,,0.00,WeatherCatV1.21B27,2013-09-05 20:46:00,
2013-09-05 13:51:00,77.4,51.2,29.95,North,350,2.0,4.0,40,0.00,,,0.00,WeatherCatV1.21B27,2013-09-05 20:51:00,
2013-09-05 13:56:00,77.4,53.1,29.95,East,88,0.0,1.0,43,0.00,,,0.00,WeatherCatV1.21B27,2013-09-05 20:56:00,
2013-09-05 14:02:00,77.5,51.2,29.94,NNE,15,1.0,4.0,40,0.00,,,0.00,WeatherCatV1.21B27,2013-09-05 21:02:00,
2013-09-05 14:07:00,77.0,51.5,29.94,NNE,27,0.0,4.0,41,0.00,,,0.00,WeatherCatV1.21B27,2013-09-05 21:07:00,
2013-09-05 14:12:00,76.4,52.2,29.94,East,94,0.0,3.0,43,0.00,,,0.00,WeatherCatV1.21B27,2013-09-05 21:12:00,
2013-09-05 14:17:00,76.3,51.5,29.94,North,356,0.0,2.0,42,0.00,,,0.00,WeatherCatV1.21B27,2013-09-05 21:17:00,
2013-09-05 14:22:00,76.1,51.3,29.94,East,101,0.0,4.0,42,0.00,,,0.00,WeatherCatV1.21B27,2013-09-05 21:22:00,
2013-09-05 14:27:00,76.2,52.0,29.94,NNE,18,1.0,1.0,43,0.00,,,0.00,WeatherCatV1.21B27,2013-09-05 21:27:00,
2013-09-05 14:32:00,76.1,52.0,29.94,NNW,338,0.0,4.0,43,0.00,,,0.00,WeatherCatV1.21B27,2013-09-05 21:32:00,
2013-09-05 14:37:00,75.8,52.3,29.94,North,356,0.0,2.0,44,0.00,,,0.00,WeatherCatV1.21B27,2013-09-05 21:37:00,
2013-09-05 14:42:00,75.5,52.0,29.94,NNE,31,2.0,7.0,44,0.00,,,0.00,WeatherCatV1.21B27,2013-09-05 21:42:00,
2013-09-05 14:47:00,75.3,51.9,29.93,North,351,7.0,10.0,44,0.00,,,0.00,WeatherCatV1.21B27,2013-09-05 21:47:00,
2013-09-05 14:52:00,75.0,52.2,29.93,NNW,344,1.0,4.0,45,0.00,,,0.00,WeatherCatV1.21B27,2013-09-05 21:52:00,
2013-09-05 14:57:00,74.9,52.7,29.93,NNW,344,0.0,3.0,46,0.00,,,0.00,WeatherCatV1.21B27,2013-09-05 21:57:00,
2013-09-05 15:02:00,74.9,52.1,29.93,NNW,331,3.0,3.0,45,0.00,,,0.00,WeatherCatV1.21B27,2013-09-05 22:02:00,
2013-09-05 15:07:00,74.8,52.0,29.93,NNW,343,5.0,10.0,45,0.00,,,0.00,WeatherCatV1.21B27,2013-09-05 22:07:00,
2013-09-05 15:12:00,74.7,51.9,29.93,North,351,3.0,8.0,45,0.00,,,0.00,WeatherCatV1.21B27,2013-09-05 22:12:00,
2013-09-05 15:17:00,74.8,52.0,29.93,NNW,343,5.0,5.0,45,0.00,,,0.00,WeatherCatV1.21B27,2013-09-05 22:17:00,
2013-09-05 15:22:00,74.9,51.5,29.93,NNW,338,5.0,6.0,44,0.00,,,0.00,WeatherCatV1.21B27,2013-09-05 22:22:00,
2013-09-05 15:27:00,74.8,52.0,29.93,NNW,333,3.0,4.0,45,0.00,,,0.00,WeatherCatV1.21B27,2013-09-05 22:27:00,
2013-09-05 15:32:00,74.8,51.4,29.93,NNW,337,2.0,7.0,44,0.00,,,0.00,WeatherCatV1.21B27,2013-09-05 22:32:00,
2013-09-05 15:37:00,74.6,51.2,29.93,North,7,1.0,8.0,44,0.00,,,0.00,WeatherCatV1.21B27,2013-09-05 22:37:00,
2013-09-05 15:42:00,74.5,51.8,29.93,NNW,341,5.0,6.0,45,0.00,,,0.00,WeatherCatV1.21B27,2013-09-05 22:42:00,
2013-09-05 15:47:00,74.5,51.8,29.93,NNW,337,4.0,7.0,45,0.00,,,0.00,WeatherCatV1.21B27,2013-09-05 22:47:00,
2013-09-05 15:52:00,74.6,51.8,29.93,NNW,335,3.0,4.0,45,0.00,,,0.00,WeatherCatV1.21B27,2013-09-05 22:52:00,
2013-09-05 15:57:00,74.6,51.8,29.93,NNW,341,4.0,4.0,45,0.00,,,0.00,WeatherCatV1.21B27,2013-09-05 22:57:00,
2013-09-05 16:02:00,74.6,51.8,29.92,NNW,339,1.0,4.0,45,0.00,,,0.00,WeatherCatV1.21B27,2013-09-05 23:02:00,
2013-09-05 16:07:00,74.7,51.3,29.92,NNW,339,0.0,5.0,44,0.00,,,0.00,WeatherCatV1.21B27,2013-09-05 23:07:00,
2013-09-05 16:12:00,74.6,51.8,29.92,ESE,102,3.0,5.0,45,0.00,,,0.00,WeatherCatV1.21B27,2013-09-05 23:12:00,
2013-09-05 16:17:00,73.9,51.8,29.92,NNW,337,5.0,7.0,46,0.00,,,0.00,WeatherCatV1.21B27,2013-09-05 23:17:00,
2013-09-05 16:22:00,73.5,52.0,29.92,NNW,332,5.0,8.0,47,0.00,,,0.00,WeatherCatV1.21B27,2013-09-05 23:22:00,
2013-09-05 16:27:00,73.0,52.1,29.92,NNW,348,4.0,4.0,48,0.00,,,0.00,WeatherCatV1.21B27,2013-09-05 23:27:00,
2013-09-05 16:32:00,72.5,51.7,29.92,NNW,334,5.0,6.0,48,0.00,,,0.00,WeatherCatV1.21B27,2013-09-05 23:32:00,
2013-09-05 16:37:00,72.3,52.0,29.92,NW,318,3.0,7.0,49,0.00,,,0.00,WeatherCatV1.21B27,2013-09-05 23:37:00,
2013-09-05 16:42:00,72.4,52.2,29.92,NNW,341,3.0,6.0,49,0.00,,,0.00,WeatherCatV1.21B27,2013-09-05 23:42:00,
2013-09-05 16:47:00,72.4,52.2,29.91,NNW,331,4.0,8.0,49,0.00,,,0.00,WeatherCatV1.21B27,2013-09-05 23:47:00,
2013-09-05 16:52:00,72.3,52.0,29.91,NNW,334,4.0,6.0,49,0.00,,,0.00,WeatherCatV1.21B27,2013-09-05 23:52:00,
2013-09-05 16:57:00,72.1,52.4,29.91,NNW,338,3.0,7.0,50,0.00,,,0.00,WeatherCatV1.21B27,2013-09-05 23:57:00,
2013-09-05 17:02:00,71.9,51.7,29.91,ESE,112,2.0,8.0,49,0.00,,,0.00,WeatherCatV1.21B27,2013-09-06 00:02:00,
2013-09-05 17:07:00,71.7,52.0,29.91,NNW,342,4.0,7.0,50,0.00,,,0.00,WeatherCatV1.21B27,2013-09-06 00:07:00,
2013-09-05 17:12:00,71.2,51.6,29.91,NNW,346,4.0,6.0,50,0.00,,,0.00,WeatherCatV1.21B27,2013-09-06 00:12:00,
2013-09-05 17:17:00,70.9,51.9,29.91,NNW,343,8.0,8.0,51,0.00,,,0.00,WeatherCatV1.21B27,2013-09-06 00:17:00,
2013-09-05 17:22:00,70.6,52.1,29.91,NNW,331,6.0,9.0,52,0.00,,,0.00,WeatherCatV1.21B27,2013-09-06 00:22:00,
2013-09-05 17:27:00,70.3,52.3,29.91,North,356,4.0,6.0,53,0.00,,,0.00,WeatherCatV1.21B27,2013-09-06 00:27:00,
2013-09-05 17:32:00,70.1,52.7,29.91,North,354,5.0,6.0,54,0.00,,,0.00,WeatherCatV1.21B27,2013-09-06 00:32:00,
2013-09-05 17:37:00,70.0,52.6,29.91,NW,317,2.0,6.0,54,0.00,,,0.00,WeatherCatV1.21B27,2013-09-06 00:37:00,
2013-09-05 17:42:00,69.7,52.8,29.91,NNW,337,2.0,5.0,55,0.00,,,0.00,WeatherCatV1.21B27,2013-09-06 00:42:00,
2013-09-05 17:47:00,69.6,52.7,29.91,North,355,4.0,6.0,55,0.00,,,0.00,WeatherCatV1.21B27,2013-09-06 00:47:00,
2013-09-05 17:52:00,69.4,52.5,29.91,NNW,332,6.0,8.0,55,0.00,,,0.00,WeatherCatV1.21B27,2013-09-06 00:52:00,
2013-09-05 17:57:00,69.0,52.6,29.91,NW,309,5.0,7.0,56,0.00,,,0.00,WeatherCatV1.21B27,2013-09-06 00:57:00,
2013-09-05 18:02:00,68.8,52.5,29.91,NNE,13,3.0,7.0,56,0.00,,,0.00,WeatherCatV1.21B27,2013-09-06 01:02:00,
2013-09-05 18:07:00,68.6,52.8,29.91,NNW,337,5.0,8.0,57,0.00,,,0.00,WeatherCatV1.21B27,2013-09-06 01:07:00,
2013-09-05 18:12:00,68.4,52.6,29.91,NNW,339,4.0,5.0,57,0.00,,,0.00,WeatherCatV1.21B27,2013-09-06 01:12:00,
2013-09-05 18:17:00,68.3,52.5,29.91,North,10,4.0,4.0,57,0.00,,,0.00,WeatherCatV1.21B27,2013-09-06 01:17:00,
2013-09-05 18:22:00,68.2,52.4,29.91,NNW,335,3.0,4.0,57,0.00,,,0.00,WeatherCatV1.21B27,2013-09-06 01:22:00,
2013-09-05 18:27:00,68.0,52.2,29.91,North,350,2.0,5.0,57,0.00,,,0.00,WeatherCatV1.21B27,2013-09-06 01:27:00,
2013-09-05 18:32:00,67.7,51.9,29.91,NNW,342,3.0,6.0,57,0.00,,,0.00,WeatherCatV1.21B27,2013-09-06 01:32:00,
2013-09-05 18:37:00,67.5,52.2,29.91,NW,304,5.0,6.0,58,0.00,,,0.00,WeatherCatV1.21B27,2013-09-06 01:37:00,
2013-09-05 18:42:00,67.3,51.5,29.91,NNW,336,3.0,6.0,57,0.00,,,0.00,WeatherCatV1.21B27,2013-09-06 01:42:00,
2013-09-05 18:47:00,67.1,51.8,29.91,NW,318,6.0,6.0,58,0.00,,,0.00,WeatherCatV1.21B27,2013-09-06 01:47:00,
2013-09-05 18:52:00,67.0,51.7,29.91,North,4,6.0,8.0,58,0.00,,,0.00,WeatherCatV1.21B27,2013-09-06 01:52:00,
2013-09-05 18:57:00,66.7,51.5,29.91,NNW,334,4.0,6.0,58,0.00,,,0.00,WeatherCatV1.21B27,2013-09-06 01:57:00,
2013-09-05 19:02:00,66.3,51.5,29.90,NNW,328,5.0,5.0,59,0.00,,,0.00,WeatherCatV1.21B27,2013-09-06 02:02:00,
2013-09-05 19:07:00,65.9,51.2,29.90,NNW,334,5.0,6.0,59,0.00,,,0.00,WeatherCatV1.21B27,2013-09-06 02:07:00,
2013-09-05 19:12:00,65.6,51.3,29.90,NNW,339,4.0,6.0,60,0.00,,,0.00,WeatherCatV1.21B27,2013-09-06 02:12:00,
2013-09-05 19:17:00,65.3,51.5,29.91,NNW,341,5.0,8.0,61,0.00,,,0.00,WeatherCatV1.21B27,2013-09-06 02:17:00,
2013-09-05 19:22:00,65.0,51.7,29.91,North,357,4.0,6.0,62,0.00,,,0.00,WeatherCatV1.21B27,2013-09-06 02:22:00,
2013-09-05 19:27:00,64.7,51.4,29.91,North,349,5.0,7.0,62,0.00,,,0.00,WeatherCatV1.21B27,2013-09-06 02:27:00,
2013-09-05 19:32:00,64.5,50.8,29.91,NNW,339,4.0,6.0,61,0.00,,,0.00,WeatherCatV1.21B27,2013-09-06 02:32:00,
2013-09-05 19:37:00,64.3,51.0,29.91,NNW,333,6.0,6.0,62,0.00,,,0.00,WeatherCatV1.21B27,2013-09-06 02:37:00,
2013-09-05 19:42:00,64.0,50.7,29.91,NNW,329,4.0,5.0,62,0.00,,,0.00,WeatherCatV1.21B27,2013-09-06 02:42:00,
2013-09-05 19:47:00,63.7,50.4,29.91,NNW,336,5.0,7.0,62,0.00,,,0.00,WeatherCatV1.21B27,2013-09-06 02:47:00,
2013-09-05 19:52:00,63.4,50.2,29.91,NNW,343,7.0,7.0,62,0.00,,,0.00,WeatherCatV1.21B27,2013-09-06 02:52:00,
2013-09-05 19:57:00,63.2,50.4,29.91,NNW,329,6.0,8.0,63,0.00,,,0.00,WeatherCatV1.21B27,2013-09-06 02:57:00,
2013-09-05 20:02:00,63.1,50.3,29.91,NNW,330,7.0,7.0,63,0.00,,,0.00,WeatherCatV1.21B27,2013-09-06 03:02:00,
2013-09-05 20:07:00,63.0,50.2,29.91,NNW,329,7.0,8.0,63,0.00,,,0.00,WeatherCatV1.21B27,2013-09-06 03:07:00,
2013-09-05 20:12:00,62.8,49.6,29.91,NNW,328,6.0,6.0,62,0.00,,,0.00,WeatherCatV1.21B27,2013-09-06 03:12:00,
2013-09-05 20:17:00,62.6,49.4,29.92,NNW,329,6.0,6.0,62,0.00,,,0.00,WeatherCatV1.21B27,2013-09-06 03:17:00,
2013-09-05 20:22:00,62.5,49.7,29.92,NNW,332,5.0,7.0,63,0.00,,,0.00,WeatherCatV1.21B27,2013-09-06 03:22:00,
2013-09-05 20:27:00,62.3,50.0,29.92,NNW,334,7.0,7.0,64,0.00,,,0.00,WeatherCatV1.21B27,2013-09-06 03:27:00,
2013-09-05 20:32:00,62.1,49.8,29.92,NW,313,4.0,6.0,64,0.00,,,0.00,WeatherCatV1.21B27,2013-09-06 03:32:00,
2013-09-05 20:37:00,62.0,48.8,29.92,NNW,333,5.0,6.0,62,0.00,,,0.00,WeatherCatV1.21B27,2013-09-06 03:37:00,
2013-09-05 20:42:00,62.1,48.0,29.92,NNW,337,4.0,5.0,60,0.00,,,0.00,WeatherCatV1.21B27,2013-09-06 03:42:00,
2013-09-05 20:47:00,62.2,48.1,29.92,North,358,6.0,6.0,60,0.00,,,0.00,WeatherCatV1.21B27,2013-09-06 03:47:00,
2013-09-05 20:52:00,62.2,47.7,29.92,NNW,333,3.0,6.0,59,0.00,,,0.00,WeatherCatV1.21B27,2013-09-06 03:52:00,
2013-09-05 20:57:00,62.2,46.8,29.92,NNW,333,5.0,7.0,57,0.00,,,0.00,WeatherCatV1.21B27,2013-09-06 03:57:00,
2013-09-05 21:01:00,62.3,46.9,29.92,NNW,330,5.0,6.0,57,0.00,,,0.00,WeatherCatV1.21B27,2013-09-06 04:01:00,
2013-09-05 21:02:00,62.4,47.0,29.92,NNW,331,4.0,6.0,57,0.00,,,0.00,WeatherCatV1.21B27,2013-09-06 04:02:00,
2013-09-05 21:04:00,62.4,47.0,29.92,NNW,337,5.0,7.0,57,0.00,,,0.00,WeatherCatV1.21B27,2013-09-06 04:04:00,
2013-09-05 21:09:00,62.3,46.9,29.92,North,358,6.0,6.0,57,0.00,,,0.00,WeatherCatV1.21B27,2013-09-06 04:09:00,
2013-09-05 21:14:00,62.3,46.4,29.93,NNW,335,4.0,6.0,56,0.00,,,0.00,WeatherCatV1.21B27,2013-09-06 04:14:00,
2013-09-05 21:19:00,62.3,45.9,29.93,NNW,333,2.0,3.0,55,0.00,,,0.00,WeatherCatV1.21B27,2013-09-06 04:19:00,
2013-09-05 21:24:00,62.5,45.6,29.93,NNW,333,3.0,6.0,54,0.00,,,0.00,WeatherCatV1.21B27,2013-09-06 04:24:00,
2013-09-05 21:29:00,62.6,45.2,29.93,NNW,333,3.0,4.0,53,0.00,,,0.00,WeatherCatV1.21B27,2013-09-06 04:29:00,
2013-09-05 21:34:00,62.6,44.7,29.93,NNW,339,0.0,3.0,52,0.00,,,0.00,WeatherCatV1.21B27,2013-09-06 04:34:00,
2013-09-05 21:39:00,62.8,44.4,29.93,NNW,339,3.0,5.0,51,0.00,,,0.00,WeatherCatV1.21B27,2013-09-06 04:39:00,
2013-09-05 21:44:00,62.8,44.4,29.93,NNW,337,4.0,5.0,51,0.00,,,0.00,WeatherCatV1.21B27,2013-09-06 04:44:00,
2013-09-05 21:49:00,62.9,44.5,29.93,NNW,331,4.0,5.0,51,0.00,,,0.00,WeatherCatV1.21B27,2013-09-06 04:49:00,
2013-09-05 21:54:00,62.8,44.4,29.93,NNW,331,6.0,7.0,51,0.00,,,0.00,WeatherCatV1.21B27,2013-09-06 04:54:00,
2013-09-05 21:59:00,62.7,43.8,29.93,NNW,333,5.0,8.0,50,0.00,,,0.00,WeatherCatV1.21B27,2013-09-06 04:59:00,
2013-09-05 22:04:00,62.8,44.4,29.93,NNW,335,5.0,7.0,51,0.00,,,0.00,WeatherCatV1.21B27,2013-09-06 05:04:00,
2013-09-05 22:10:00,62.7,43.8,29.93,North,350,3.0,6.0,50,0.00,,,0.00,WeatherCatV1.21B27,2013-09-06 05:10:00,
2013-09-05 22:15:00,62.8,42.8,29.93,NNW,339,4.0,4.0,48,0.00,,,0.00,WeatherCatV1.21B27,2013-09-06 05:15:00,
2013-09-05 22:20:00,63.0,43.0,29.93,NNW,338,2.0,4.0,48,0.00,,,0.00,WeatherCatV1.21B27,2013-09-06 05:20:00,
2013-09-05 22:25:00,63.0,42.5,29.93,NNW,339,4.0,4.0,47,0.00,,,0.00,WeatherCatV1.21B27,2013-09-06 05:25:00,
2013-09-05 22:30:00,63.0,42.5,29.93,NNW,336,1.0,3.0,47,0.00,,,0.00,WeatherCatV1.21B27,2013-09-06 05:30:00,
2013-09-05 22:35:00,63.1,42.0,29.93,NNW,334,1.0,2.0,46,0.00,,,0.00,WeatherCatV1.21B27,2013-09-06 05:35:00,
2013-09-05 22:40:00,63.1,42.0,29.93,NNW,334,0.0,0.0,46,0.00,,,0.00,WeatherCatV1.21B27,2013-09-06 05:40:00,
2013-09-05 22:45:00,63.0,41.9,29.93,NNW,334,0.0,0.0,46,0.00,,,0.00,WeatherCatV1.21B27,2013-09-06 05:45:00,
2013-09-05 22:50:00,62.9,41.8,29.93,NNW,334,0.0,0.0,46,0.00,,,0.00,WeatherCatV1.21B27,2013-09-06 05:50:00,
2013-09-05 22:55:00,62.6,42.1,29.93,NNW,334,0.0,0.0,47,0.00,,,0.00,WeatherCatV1.21B27,2013-09-06 05:55:00,
2013-09-05 23:00:00,62.3,41.8,29.93,NNW,334,0.0,0.0,47,0.00,,,0.00,WeatherCatV1.21B27,2013-09-06 06:00:00,
2013-09-05 23:05:00,62.0,41.0,29.93,NNW,334,0.0,0.0,46,0.00,,,0.00,WeatherCatV1.21B27,2013-09-06 06:05:00,
2013-09-05 23:10:00,61.7,40.7,29.93,NNW,334,0.0,0.0,46,0.00,,,0.00,WeatherCatV1.21B27,2013-09-06 06:10:00,
2013-09-05 23:15:00,61.5,40.0,29.93,NNW,334,0.0,2.0,45,0.00,,,0.00,WeatherCatV1.21B27,2013-09-06 06:15:00,
2013-09-05 23:20:00,61.7,39.6,29.93,NNW,334,0.0,1.0,44,0.00,,,0.00,WeatherCatV1.21B27,2013-09-06 06:20:00,
2013-09-05 23:25:00,61.8,39.7,29.93,NNW,334,1.0,1.0,44,0.00,,,0.00,WeatherCatV1.21B27,2013-09-06 06:25:00,
2013-09-05 23:30:00,62.1,39.9,29.93,NNW,335,2.0,2.0,44,0.00,,,0.00,WeatherCatV1.21B27,2013-09-06 06:30:00,
2013-09-05 23:35:00,62.3,38.9,29.93,NNW,329,1.0,2.0,42,0.00,,,0.00,WeatherCatV1.21B27,2013-09-06 06:35:00,
2013-09-05 23:40:00,62.5,38.5,29.93,NNW,329,0.0,0.0,41,0.00,,,0.00,WeatherCatV1.21B27,2013-09-06 06:40:00,
2013-09-05 23:45:00,62.6,37.9,29.93,NNW,329,0.0,1.0,40,0.00,,,0.00,WeatherCatV1.21B27,2013-09-06 06:45:00,
2013-09-05 23:50:00,62.8,38.1,29.93,NNW,329,0.0,0.0,40,0.00,,,0.00,WeatherCatV1.21B27,2013-09-06 06:50:00,
2013-09-05 23:55:00,62.7,38.7,29.93,NNW,329,0.0,0.0,41,0.00,,,0.00,WeatherCatV1.21B27,2013-09-06 06:55:00,